Flight Track Log - Related Links

Times and Time Zones

All times are in EDT time to prevent confusion due to time zone crossing. See the N331SK flight status page for this flight to view local times or setup timezone preferences in your user account.

Time Position Orientation Groundspeed Altitude Reporting Facility
EDT Latitude Longitude Course Direction KTS MPH feet Rate Location/Type
Fri 01:35:57 PM 40.8611 -96.7464 24° Northeast 148 170 2,000  Level Minneapolis Center
Fri 01:37:09 PM 40.9178 -96.7131 24° Northeast 227 261 4,900 2,691 Climbing Minneapolis Center
Fri 01:38:13 PM 40.9819 -96.6614 31° Northeast 227 261 8,100 2,429 Climbing Minneapolis Center
Fri 01:39:15 PM 41.0339 -96.5897 46° Northeast 259 298 10,000 2,226 Climbing Minneapolis Center
Fri 01:40:17 PM 41.0964 -96.5108 44° Northeast 297 342 12,700 2,419 Climbing Minneapolis Center
Fri 01:41:19 PM 41.1636 -96.4264 43° Northeast 323 372 15,000 2,226 Climbing Minneapolis Center
Fri 01:42:21 PM 41.2331 -96.3358 44° Northeast 342 394 17,300 2,226 Climbing Minneapolis Center
Fri 01:43:23 PM 41.3158 -96.2281 44° Northeast 359 413 19,600 1,790 Climbing Minneapolis Center
Fri 01:44:25 PM 41.3917 -96.1286 45° Northeast 377 434 21,000 677 Climbing Minneapolis Center
Fri 01:45:27 PM 41.4731 -96.0228 44° Northeast 401 461 21,000  Level Minneapolis Center
Fri 01:46:29 PM 41.5583 -95.9133 44° Northeast 422 486 21,000  Level Minneapolis Center
Fri 01:47:32 PM 41.6589 -95.7814 44° Northeast 423 487 21,000  Level Minneapolis Center
Fri 01:48:34 PM 41.7386 -95.6775 44° Northeast 423 487 21,000  Level Minneapolis Center
Fri 01:49:36 PM 41.8219 -95.5658 45° Northeast 423 487 21,000  Level Minneapolis Center
Fri 01:50:38 PM 41.9061 -95.4550 44° Northeast 425 489 21,000  Level Minneapolis Center
Fri 01:51:40 PM 41.9900 -95.3428 45° Northeast 425 489 21,000  Level Minneapolis Center
Fri 01:52:42 PM 42.0914 -95.2075 45° Northeast 427 491 21,000  Level Minneapolis Center
Fri 01:53:44 PM 42.1747 -95.0933 45° Northeast 427 491 21,000  Level Minneapolis Center
Fri 01:54:46 PM 42.2594 -94.9783 45° Northeast 431 496 21,000  Level Minneapolis Center
Fri 01:55:48 PM 42.3433 -94.8644 45° Northeast 429 494 21,000  Level Minneapolis Center
Fri 01:56:50 PM 42.4272 -94.7497 45° Northeast 429 494 21,000 -145 Level Minneapolis Center
Fri 01:57:52 PM 42.5119 -94.6347 45° Northeast 431 496 20,700 -1,248 Descending Minneapolis Center
Fri 01:58:55 PM 42.6086 -94.4953 47° Northeast 440 506 18,400 -2,064 Descending Minneapolis Center
Fri 01:59:57 PM 42.6739 -94.3564 57° Northeast 442 509 16,400 -1,935 Descending Minneapolis Center
Fri 02:00:59 PM 42.7306 -94.2244 60° Northeast 420 483 14,400 -1,935 Descending Minneapolis Center
Fri 02:02:01 PM 42.7900 -94.0958 58° Northeast 409 471 12,400 -2,129 Descending Minneapolis Center
Fri 02:03:03 PM 42.8583 -93.9464 58° Northeast 394 453 10,000 -1,935 Descending Minneapolis Center
Fri 02:04:05 PM 42.9033 -93.8447 59° Northeast 333 383 8,400 -1,500 Descending Minneapolis Center
Fri 02:05:07 PM 42.9456 -93.7522 58° Northeast 302 348 6,900 -1,452 Descending Minneapolis Center
Fri 02:07:00 PM 43.1062 -93.6812 51° Northeast  Level Estimated
Fri 02:14:00 PM 43.2333 -93.6167 36° Northeast  Level FlightAware Approximate

Login

Don't have an account? Register now (free) for customized features, flight alerts, and more!